Tishomingo, OK (73460)

11:51 AM CDT on July 27, 2016 (GMT -0500)
PRC Shorthorns | | Change Station

Elev 899 ft 34.36 °N, 96.58 °W | Updated 15 seconds ago

Overcast
Overcast
87.8 °F
Feels Like 107 °F
N
2.7
Wind Variable Wind from SE
Gusts 4.9 mph

Today
High -- | Low -- °F
--% Chance of Precip.
Yesterday
High -- | Low -- °F
Precip. -- in
Pressure 29.97 in
Visibility 10.0 miles
Clouds Overcast 11000 ft
Heat Index 107 °F
Dew Point 82 °F
Humidity 82%
Rainfall 0.00 in
Snow Depth Not available.
6:34 AM 8:31 PM
Last Quarter, 41% visible
METAR KADM 271455Z 17003KT 10SM OVC110 28/24 A2997
Pressure 29.97 in
Visibility 10.0 miles
Clouds Overcast 11000 ft
Heat Index 107 °F
Dew Point 82 °F
Humidity 82%
Rainfall 0.00 in
Snow Depth Not available.
6:34 AM 8:31 PM
Last Quarter, 41% visible
METAR KADM 271455Z 17003KT 10SM OVC110 28/24 A2997

10-Day Weather Forecast

Almanac

Astronomy

Jul. 27, 2016 Rise Set
Actual Time
Civil Twilight
Nautical Twilight
Astronomical Twilight
Moon
Length of Visible Light
Length of Day
Tomorrow will be .
, % of the Moon is Illuminated

Today's Extremes

State Highs State Lows

Community

WunderPhotos

Upload Photos

1,927,880 photos uploaded!

WunderBlog® & News

Nearby

Air Quality

  Air Quality AQ Index Pollutant
Not available.

Snow Depth

Station Depth Elevation

Earthquake Activity

City Distance Mag. Time & Date
Minimum magnitude displayed is 2.5.

Coastal Water Temperatures

Place Temperature

Stations

Nearby Weather Stations

Station Location Temp. Windchill Dew Point Humidity Wind Precip. Elev Updated Type
                   

Watches & Warnings

There are currently no watches in effect.